createdAt,value
2023-03-23T15:57:52.734Z,15.44
2023-03-23T16:00:21.512Z,16.08
2023-03-23T16:02:55.147Z,16.28
2023-03-23T16:05:21.956Z,16.03
2023-03-23T16:07:48.781Z,16.05
2023-03-23T16:10:21.363Z,16.16
2023-03-23T16:12:48.232Z,16.10
2023-03-23T16:15:15.782Z,15.65
2023-03-23T16:17:43.393Z,15.84
2023-03-23T16:20:22.194Z,15.87
2023-03-23T16:22:50.903Z,15.89
2023-03-23T16:25:19.039Z,15.88
2023-03-23T16:27:51.282Z,15.72
2023-03-23T16:30:27.182Z,15.68
2023-03-23T16:32:55.464Z,15.57
2023-03-23T16:35:22.820Z,15.57
2023-03-23T16:38:07.679Z,15.50
2023-03-23T16:40:35.553Z,15.37
2023-03-23T16:43:02.139Z,15.22
2023-03-23T16:45:43.127Z,15.19
2023-03-23T16:48:11.993Z,15.06
2023-03-23T16:50:39.216Z,15.07
2023-03-23T16:53:08.127Z,15.03
2023-03-23T16:55:35.849Z,14.86
2023-03-23T16:58:15.418Z,14.83
2023-03-23T17:00:44.767Z,14.83
2023-03-23T17:03:11.516Z,14.78
2023-03-23T17:05:38.535Z,14.70
2023-03-23T17:08:05.912Z,14.66
2023-03-23T17:10:32.989Z,14.66
2023-03-23T17:12:59.950Z,14.71
2023-03-23T17:15:26.875Z,14.58
2023-03-23T17:17:55.155Z,14.55
2023-03-23T17:20:23.082Z,14.58
2023-03-23T17:22:50.305Z,14.51
2023-03-23T17:25:16.999Z,14.49
2023-03-23T17:27:43.837Z,14.42
2023-03-23T17:30:11.582Z,14.33
2023-03-23T17:32:38.404Z,14.38
2023-03-23T17:35:06.827Z,14.29
2023-03-23T17:37:34.843Z,14.33
2023-03-23T17:40:02.289Z,14.25
2023-03-23T17:42:30.129Z,14.25
2023-03-23T17:44:56.767Z,14.22
2023-03-23T17:47:24.225Z,14.16
2023-03-23T17:49:51.490Z,14.15
2023-03-23T17:52:20.233Z,14.11
2023-03-23T17:54:47.039Z,13.97
2023-03-23T17:57:15.927Z,14.01
2023-03-23T17:59:42.602Z,13.94
2023-03-23T18:02:11.167Z,13.96
2023-03-23T18:04:37.912Z,13.88
2023-03-23T18:07:05.665Z,13.81
2023-03-23T18:09:35.153Z,13.72
2023-03-23T18:12:04.529Z,13.75
2023-03-23T18:14:34.121Z,13.74
2023-03-23T18:17:02.266Z,13.64
2023-03-23T18:19:29.078Z,13.60
2023-03-23T18:22:10.976Z,13.55
2023-03-23T18:24:52.737Z,13.51
2023-03-23T18:27:19.320Z,13.54
2023-03-23T18:29:46.220Z,13.50
2023-03-23T18:32:13.006Z,13.52
2023-03-23T18:34:43.583Z,13.48
2023-03-23T18:37:13.049Z,13.54
2023-03-23T18:39:39.747Z,13.43
2023-03-23T18:42:07.026Z,13.43
2023-03-23T18:44:34.479Z,13.45
2023-03-23T18:47:01.423Z,13.40
2023-03-23T18:49:29.610Z,13.28
2023-03-23T18:52:01.503Z,13.20
2023-03-23T18:54:29.059Z,13.13
2023-03-23T18:56:56.069Z,13.18
2023-03-23T18:59:30.427Z,13.14
2023-03-23T19:01:57.965Z,13.16
2023-03-23T19:04:25.228Z,13.17
2023-03-23T19:06:51.878Z,13.17
2023-03-23T19:09:21.270Z,13.16
2023-03-23T19:11:48.135Z,13.12
2023-03-23T19:14:17.226Z,13.14
2023-03-23T19:16:43.990Z,13.04
2023-03-23T19:19:13.134Z,13.06
2023-03-23T19:21:46.848Z,12.98
2023-03-23T19:24:14.128Z,12.95
2023-03-23T19:26:43.454Z,12.99
2023-03-23T19:29:26.535Z,12.79
2023-03-23T19:31:55.399Z,12.70
2023-03-23T19:34:24.086Z,12.69
2023-03-23T19:36:59.486Z,12.60
2023-03-23T19:39:31.374Z,12.72
2023-03-23T19:41:58.496Z,12.69
2023-03-23T19:44:25.602Z,12.84
2023-03-23T19:46:53.467Z,12.72
2023-03-23T19:49:20.224Z,12.70
2023-03-23T19:51:46.891Z,12.80
2023-03-23T19:54:13.569Z,12.76
2023-03-23T19:56:40.507Z,12.76
2023-03-23T19:59:10.573Z,12.77
2023-03-23T20:01:37.432Z,12.78
2023-03-23T20:04:05.341Z,12.76
2023-03-23T20:06:32.819Z,12.72
2023-03-23T20:09:03.115Z,12.69
2023-03-23T20:11:30.788Z,12.74
2023-03-23T20:13:57.841Z,12.61
2023-03-23T20:16:26.199Z,12.57
2023-03-23T20:18:53.656Z,12.29
2023-03-23T20:21:22.836Z,12.40
2023-03-23T20:23:53.154Z,12.37
2023-03-23T20:26:32.686Z,12.25
2023-03-23T20:29:00.691Z,12.16
2023-03-23T20:31:30.378Z,12.23
2023-03-23T20:34:03.117Z,12.30
2023-03-23T20:36:35.055Z,12.31
2023-03-23T20:39:10.707Z,12.22
2023-03-23T20:41:38.921Z,12.21
2023-03-23T20:44:07.892Z,12.29
2023-03-23T20:46:35.340Z,12.20
2023-03-23T20:49:02.739Z,12.12
2023-03-23T20:51:29.820Z,12.16
2023-03-23T20:53:56.451Z,12.09
2023-03-23T20:56:24.486Z,12.13
2023-03-23T20:58:51.439Z,12.14
2023-03-23T21:01:18.196Z,11.92
2023-03-23T21:03:44.927Z,11.92
2023-03-23T21:06:11.981Z,12.04
2023-03-23T21:08:40.808Z,11.97
2023-03-23T21:11:10.370Z,12.04
2023-03-23T21:13:37.085Z,12.07
2023-03-23T21:16:05.217Z,11.94
2023-03-23T21:18:32.166Z,12.06
2023-03-23T21:21:00.482Z,12.05
2023-03-23T21:23:29.695Z,12.01
2023-03-23T21:26:02.230Z,11.98
2023-03-23T21:28:29.593Z,12.09
2023-03-23T21:31:05.201Z,12.05
2023-03-23T21:33:32.240Z,12.13
2023-03-23T21:36:00.431Z,12.20
2023-03-23T21:38:28.083Z,12.08
2023-03-23T21:40:56.386Z,12.12
2023-03-23T21:43:27.577Z,12.14
2023-03-23T21:45:56.620Z,12.15
2023-03-23T21:48:24.081Z,12.05
2023-03-23T21:50:50.874Z,12.03
2023-03-23T21:53:20.728Z,12.01
2023-03-23T21:55:51.843Z,11.96
2023-03-23T21:58:20.200Z,11.77
2023-03-23T22:00:49.970Z,11.83
2023-03-23T22:03:18.948Z,11.92
2023-03-23T22:05:46.474Z,11.93
2023-03-23T22:08:13.992Z,11.94
2023-03-23T22:10:43.001Z,11.94
2023-03-23T22:13:31.682Z,11.88
2023-03-23T22:16:01.126Z,11.81
2023-03-23T22:18:28.639Z,11.43
2023-03-23T22:20:56.762Z,11.52
2023-03-23T22:23:23.432Z,11.64
2023-03-23T22:25:50.154Z,11.64
2023-03-23T22:28:19.530Z,11.70
2023-03-23T22:30:47.709Z,11.79
2023-03-23T22:33:14.747Z,11.75
2023-03-23T22:35:41.483Z,11.58
2023-03-23T22:38:08.159Z,11.46
2023-03-23T22:40:34.982Z,11.39
2023-03-23T22:43:03.259Z,11.45
2023-03-23T22:45:30.238Z,11.34
2023-03-23T22:47:58.158Z,11.03
2023-03-23T22:50:25.010Z,11.32
2023-03-23T22:52:51.739Z,11.42
2023-03-23T22:55:18.572Z,11.45
2023-03-23T22:57:45.892Z,11.42
2023-03-23T23:00:18.670Z,11.49
2023-03-23T23:02:45.843Z,11.32
2023-03-23T23:05:13.883Z,11.32
2023-03-23T23:07:40.959Z,11.42
2023-03-23T23:10:08.262Z,11.46
2023-03-23T23:12:35.417Z,11.46
2023-03-23T23:15:04.656Z,11.45
2023-03-23T23:17:35.108Z,11.55
2023-03-23T23:20:05.774Z,11.47
2023-03-23T23:22:33.550Z,11.44
2023-03-23T23:25:01.251Z,11.47
2023-03-23T23:27:27.935Z,11.39
2023-03-23T23:29:54.680Z,11.52
2023-03-23T23:32:21.554Z,11.42
2023-03-23T23:34:48.516Z,11.29
2023-03-23T23:37:15.416Z,11.18
2023-03-23T23:39:42.623Z,11.04
2023-03-23T23:42:09.810Z,11.06
2023-03-23T23:44:36.835Z,11.27
2023-03-23T23:47:04.586Z,11.20
2023-03-23T23:49:34.216Z,11.28
2023-03-23T23:52:01.170Z,11.24
2023-03-23T23:54:30.819Z,11.14
2023-03-23T23:56:59.340Z,10.96
2023-03-23T23:59:26.696Z,11.05
